Terminal Aerodrome Forecast
Issued by NWS Pocatello, ID

Home | Current Version | Previous Version | Text Only | Print | Product List | Glossary On
Versions: 1 2 3 4 5 6 7 8 9 10 11 12 13
000
FTUS45 KPIH 052358 AAA
TAFIDA
TAF AMD
KIDA 052358Z 0600/0624 33010G20KT P6SM -RA VCTS BKN070CB OVC100
     FM060200 21011KT P6SM SCT070 BKN110
     FM061600 22011KT P6SM VCSH SCT040 OVC060
     FM062000 23011G22KT P6SM BKN060 OVC110=

USA.gov is the U.S. government's official web portal to all federal, state and local government web resources and services.